sensor_id;sensor_type;location;lat;lon;timestamp;P1;durP1;ratioP1;P2;durP2;ratioP2
32319;SDS011;19080;51.750;5.888;2022-08-07T00:00:34;2.58;;;1.98;;
32319;SDS011;19080;51.750;5.888;2022-08-07T00:03:00;2.75;;;1.95;;
32319;SDS011;19080;51.750;5.888;2022-08-07T00:05:28;2.45;;;2.15;;
32319;SDS011;19080;51.750;5.888;2022-08-07T00:07:54;4.30;;;2.30;;
32319;SDS011;19080;51.750;5.888;2022-08-07T00:10:28;2.85;;;2.55;;
32319;SDS011;19080;51.750;5.888;2022-08-07T00:12:56;2.83;;;2.40;;
32319;SDS011;19080;51.750;5.888;2022-08-07T00:15:27;3.45;;;2.40;;
32319;SDS011;19080;51.750;5.888;2022-08-07T00:18:15;4.70;;;2.50;;
32319;SDS011;19080;51.750;5.888;2022-08-07T00:20:49;3.95;;;2.50;;
32319;SDS011;19080;51.750;5.888;2022-08-07T00:23:16;3.65;;;3.15;;
32319;SDS011;19080;51.750;5.888;2022-08-07T00:25:46;3.25;;;2.95;;
32319;SDS011;19080;51.750;5.888;2022-08-07T00:28:26;3.28;;;2.60;;
32319;SDS011;19080;51.750;5.888;2022-08-07T00:31:04;3.92;;;3.10;;
32319;SDS011;19080;51.750;5.888;2022-08-07T00:33:41;4.57;;;3.10;;
32319;SDS011;19080;51.750;5.888;2022-08-07T00:36:12;7.65;;;3.53;;
32319;SDS011;19080;51.750;5.888;2022-08-07T00:38:39;4.13;;;3.28;;
32319;SDS011;19080;51.750;5.888;2022-08-07T00:41:06;3.25;;;2.95;;
32319;SDS011;19080;51.750;5.888;2022-08-07T00:43:40;3.85;;;3.50;;
32319;SDS011;19080;51.750;5.888;2022-08-07T00:46:27;3.35;;;3.05;;
32319;SDS011;19080;51.750;5.888;2022-08-07T00:48:53;2.40;;;2.20;;
32319;SDS011;19080;51.750;5.888;2022-08-07T00:51:20;3.17;;;2.63;;
32319;SDS011;19080;51.750;5.888;2022-08-07T00:53:46;2.88;;;2.40;;
32319;SDS011;19080;51.750;5.888;2022-08-07T00:56:22;3.60;;;2.90;;
32319;SDS011;19080;51.750;5.888;2022-08-07T00:58:55;2.78;;;2.45;;
32319;SDS011;19080;51.750;5.888;2022-08-07T01:01:22;3.03;;;2.72;;
32319;SDS011;19080;51.750;5.888;2022-08-07T01:03:49;3.00;;;2.70;;
32319;SDS011;19080;51.750;5.888;2022-08-07T01:06:23;2.92;;;2.30;;
32319;SDS011;19080;51.750;5.888;2022-08-07T01:08:50;2.60;;;2.40;;
32319;SDS011;19080;51.750;5.888;2022-08-07T01:11:21;6.50;;;3.00;;
32319;SDS011;19080;51.750;5.888;2022-08-07T01:14:09;3.65;;;3.28;;
32319;SDS011;19080;51.750;5.888;2022-08-07T01:16:35;5.50;;;3.03;;
32319;SDS011;19080;51.750;5.888;2022-08-07T01:19:03;3.15;;;2.70;;
32319;SDS011;19080;51.750;5.888;2022-08-07T01:21:44;3.95;;;3.55;;
32319;SDS011;19080;51.750;5.888;2022-08-07T01:24:12;6.28;;;3.85;;
32319;SDS011;19080;51.750;5.888;2022-08-07T01:26:39;3.33;;;3.03;;
32319;SDS011;19080;51.750;5.888;2022-08-07T01:29:07;3.30;;;2.97;;
32319;SDS011;19080;51.750;5.888;2022-08-07T01:31:36;3.92;;;3.53;;
32319;SDS011;19080;51.750;5.888;2022-08-07T01:34:13;4.60;;;3.50;;
32319;SDS011;19080;51.750;5.888;2022-08-07T01:36:41;3.80;;;3.40;;
32319;SDS011;19080;51.750;5.888;2022-08-07T01:39:16;6.03;;;4.15;;
32319;SDS011;19080;51.750;5.888;2022-08-07T01:41:51;4.70;;;3.45;;
32319;SDS011;19080;51.750;5.888;2022-08-07T01:44:37;4.63;;;3.60;;
32319;SDS011;19080;51.750;5.888;2022-08-07T01:47:05;3.60;;;3.30;;
32319;SDS011;19080;51.750;5.888;2022-08-07T01:49:52;4.57;;;3.17;;
32319;SDS011;19080;51.750;5.888;2022-08-07T01:52:20;6.00;;;3.92;;
32319;SDS011;19080;51.750;5.888;2022-08-07T01:54:51;4.38;;;3.38;;
32319;SDS011;19080;51.750;5.888;2022-08-07T01:57:22;3.83;;;3.15;;
32319;SDS011;19080;51.750;5.888;2022-08-07T01:59:54;4.50;;;3.33;;
32319;SDS011;19080;51.750;5.888;2022-08-07T02:02:24;5.15;;;3.97;;
32319;SDS011;19080;51.750;5.888;2022-08-07T02:05:17;4.85;;;3.95;;
32319;SDS011;19080;51.750;5.888;2022-08-07T02:08:10;3.83;;;3.38;;
32319;SDS011;19080;51.750;5.888;2022-08-07T02:10:40;6.72;;;4.32;;
32319;SDS011;19080;51.750;5.888;2022-08-07T02:13:10;4.93;;;4.43;;
32319;SDS011;19080;51.750;5.888;2022-08-07T02:15:47;4.80;;;4.30;;
32319;SDS011;19080;51.750;5.888;2022-08-07T02:18:19;4.30;;;3.88;;
32319;SDS011;19080;51.750;5.888;2022-08-07T02:20:51;4.90;;;4.45;;
32319;SDS011;19080;51.750;5.888;2022-08-07T02:23:23;3.90;;;3.42;;
32319;SDS011;19080;51.750;5.888;2022-08-07T02:25:51;4.10;;;3.70;;
32319;SDS011;19080;51.750;5.888;2022-08-07T02:28:38;6.93;;;4.65;;
32319;SDS011;19080;51.750;5.888;2022-08-07T02:31:08;4.97;;;4.22;;
32319;SDS011;19080;51.750;5.888;2022-08-07T02:33:53;7.93;;;5.38;;
32319;SDS011;19080;51.750;5.888;2022-08-07T02:36:40;8.10;;;5.90;;
32319;SDS011;19080;51.750;5.888;2022-08-07T02:39:13;7.00;;;4.88;;
32319;SDS011;19080;51.750;5.888;2022-08-07T02:42:02;5.35;;;4.40;;
32319;SDS011;19080;51.750;5.888;2022-08-07T02:44:38;6.72;;;4.57;;
32319;SDS011;19080;51.750;5.888;2022-08-07T02:47:13;5.55;;;3.67;;
32319;SDS011;19080;51.750;5.888;2022-08-07T02:50:10;4.28;;;3.25;;
32319;SDS011;19080;51.750;5.888;2022-08-07T02:52:40;4.88;;;3.60;;
32319;SDS011;19080;51.750;5.888;2022-08-07T02:55:15;3.60;;;3.13;;
32319;SDS011;19080;51.750;5.888;2022-08-07T02:58:06;5.63;;;4.20;;
32319;SDS011;19080;51.750;5.888;2022-08-07T03:03:06;6.03;;;3.88;;
32319;SDS011;19080;51.750;5.888;2022-08-07T03:05:41;6.53;;;4.60;;
32319;SDS011;19080;51.750;5.888;2022-08-07T03:08:11;5.72;;;4.70;;
32319;SDS011;19080;51.750;5.888;2022-08-07T03:10:43;6.35;;;4.40;;
32319;SDS011;19080;51.750;5.888;2022-08-07T03:13:17;6.50;;;4.57;;
32319;SDS011;19080;51.750;5.888;2022-08-07T03:15:46;4.85;;;4.10;;
32319;SDS011;19080;51.750;5.888;2022-08-07T03:18:26;4.95;;;4.43;;
32319;SDS011;19080;51.750;5.888;2022-08-07T03:21:03;9.77;;;6.30;;
32319;SDS011;19080;51.750;5.888;2022-08-07T03:23:36;8.65;;;6.93;;
32319;SDS011;19080;51.750;5.888;2022-08-07T03:26:24;8.23;;;6.63;;
32319;SDS011;19080;51.750;5.888;2022-08-07T03:28:52;8.57;;;7.13;;
32319;SDS011;19080;51.750;5.888;2022-08-07T03:31:19;9.93;;;8.60;;
32319;SDS011;19080;51.750;5.888;2022-08-07T03:33:57;9.38;;;8.05;;
32319;SDS011;19080;51.750;5.888;2022-08-07T03:36:26;11.25;;;6.85;;
32319;SDS011;19080;51.750;5.888;2022-08-07T03:38:56;8.18;;;7.30;;
32319;SDS011;19080;51.750;5.888;2022-08-07T03:41:31;7.63;;;6.40;;
32319;SDS011;19080;51.750;5.888;2022-08-07T03:44:13;6.78;;;5.53;;
32319;SDS011;19080;51.750;5.888;2022-08-07T03:46:41;7.28;;;4.95;;
32319;SDS011;19080;51.750;5.888;2022-08-07T03:49:28;6.85;;;6.07;;
32319;SDS011;19080;51.750;5.888;2022-08-07T03:51:57;5.45;;;4.93;;
32319;SDS011;19080;51.750;5.888;2022-08-07T03:54:29;6.38;;;5.60;;
32319;SDS011;19080;51.750;5.888;2022-08-07T03:57:04;6.47;;;5.45;;
32319;SDS011;19080;51.750;5.888;2022-08-07T03:59:35;10.40;;;6.10;;
32319;SDS011;19080;51.750;5.888;2022-08-07T04:02:12;6.45;;;4.72;;
32319;SDS011;19080;51.750;5.888;2022-08-07T04:04:43;9.38;;;5.95;;
32319;SDS011;19080;51.750;5.888;2022-08-07T04:07:11;6.72;;;5.20;;
32319;SDS011;19080;51.750;5.888;2022-08-07T04:09:45;5.78;;;5.18;;
32319;SDS011;19080;51.750;5.888;2022-08-07T04:12:20;8.30;;;6.35;;
32319;SDS011;19080;51.750;5.888;2022-08-07T04:14:55;6.20;;;5.60;;
32319;SDS011;19080;51.750;5.888;2022-08-07T04:17:22;9.07;;;6.80;;
32319;SDS011;19080;51.750;5.888;2022-08-07T04:20:12;12.70;;;8.40;;
32319;SDS011;19080;51.750;5.888;2022-08-07T04:22:41;12.35;;;9.48;;
32319;SDS011;19080;51.750;5.888;2022-08-07T04:25:27;11.90;;;8.52;;
32319;SDS011;19080;51.750;5.888;2022-08-07T04:27:56;15.38;;;10.63;;
32319;SDS011;19080;51.750;5.888;2022-08-07T04:30:27;13.65;;;10.05;;
32319;SDS011;19080;51.750;5.888;2022-08-07T04:33:18;14.93;;;11.70;;
32319;SDS011;19080;51.750;5.888;2022-08-07T04:35:49;14.88;;;10.70;;
32319;SDS011;19080;51.750;5.888;2022-08-07T04:38:20;10.20;;;8.48;;
32319;SDS011;19080;51.750;5.888;2022-08-07T04:40:48;12.43;;;9.27;;
32319;SDS011;19080;51.750;5.888;2022-08-07T04:43:31;10.35;;;8.48;;
32319;SDS011;19080;51.750;5.888;2022-08-07T04:46:29;11.63;;;8.48;;
32319;SDS011;19080;51.750;5.888;2022-08-07T04:51:55;9.10;;;7.47;;
32319;SDS011;19080;51.750;5.888;2022-08-07T05:00:05;9.85;;;7.32;;
32319;SDS011;19080;51.750;5.888;2022-08-07T05:05:24;14.25;;;11.90;;
32319;SDS011;19080;51.750;5.888;2022-08-07T05:08:14;15.05;;;11.23;;
32319;SDS011;19080;51.750;5.888;2022-08-07T05:11:18;11.18;;;8.50;;
32319;SDS011;19080;51.750;5.888;2022-08-07T05:14:07;14.20;;;9.95;;
32319;SDS011;19080;51.750;5.888;2022-08-07T05:16:56;15.23;;;10.88;;
32319;SDS011;19080;51.750;5.888;2022-08-07T05:19:24;14.70;;;10.57;;
32319;SDS011;19080;51.750;5.888;2022-08-07T05:22:10;11.60;;;8.73;;
32319;SDS011;19080;51.750;5.888;2022-08-07T05:24:52;12.60;;;9.80;;
32319;SDS011;19080;51.750;5.888;2022-08-07T05:27:24;12.32;;;9.60;;
32319;SDS011;19080;51.750;5.888;2022-08-07T05:30:14;17.42;;;12.80;;
32319;SDS011;19080;51.750;5.888;2022-08-07T05:35:22;13.50;;;10.65;;
32319;SDS011;19080;51.750;5.888;2022-08-07T05:37:59;16.95;;;13.77;;
32319;SDS011;19080;51.750;5.888;2022-08-07T05:40:37;22.13;;;16.13;;
32319;SDS011;19080;51.750;5.888;2022-08-07T05:43:18;20.73;;;15.93;;
32319;SDS011;19080;51.750;5.888;2022-08-07T05:46:05;20.67;;;15.73;;
32319;SDS011;19080;51.750;5.888;2022-08-07T05:48:32;16.75;;;13.73;;
32319;SDS011;19080;51.750;5.888;2022-08-07T05:51:00;16.23;;;13.18;;
32319;SDS011;19080;51.750;5.888;2022-08-07T05:53:30;17.58;;;12.77;;
32319;SDS011;19080;51.750;5.888;2022-08-07T05:56:18;19.20;;;12.68;;
32319;SDS011;19080;51.750;5.888;2022-08-07T05:58:57;16.25;;;12.13;;
32319;SDS011;19080;51.750;5.888;2022-08-07T06:01:25;13.32;;;10.90;;
32319;SDS011;19080;51.750;5.888;2022-08-07T06:04:00;10.57;;;9.38;;
32319;SDS011;19080;51.750;5.888;2022-08-07T06:06:35;13.80;;;10.73;;
32319;SDS011;19080;51.750;5.888;2022-08-07T06:09:05;13.05;;;9.40;;
32319;SDS011;19080;51.750;5.888;2022-08-07T06:11:36;12.43;;;9.45;;
32319;SDS011;19080;51.750;5.888;2022-08-07T06:14:03;12.55;;;8.45;;
32319;SDS011;19080;51.750;5.888;2022-08-07T06:16:42;11.27;;;8.95;;
32319;SDS011;19080;51.750;5.888;2022-08-07T06:19:17;12.55;;;8.35;;
32319;SDS011;19080;51.750;5.888;2022-08-07T06:22:05;8.15;;;6.35;;
32319;SDS011;19080;51.750;5.888;2022-08-07T06:24:52;7.45;;;6.65;;
32319;SDS011;19080;51.750;5.888;2022-08-07T06:27:27;8.48;;;7.25;;
32319;SDS011;19080;51.750;5.888;2022-08-07T06:30:13;10.00;;;6.78;;
32319;SDS011;19080;51.750;5.888;2022-08-07T06:32:57;7.90;;;6.78;;
32319;SDS011;19080;51.750;5.888;2022-08-07T06:35:24;9.35;;;7.85;;
32319;SDS011;19080;51.750;5.888;2022-08-07T06:38:11;7.43;;;6.00;;
32319;SDS011;19080;51.750;5.888;2022-08-07T06:40:47;6.53;;;5.70;;
32319;SDS011;19080;51.750;5.888;2022-08-07T06:43:17;14.90;;;6.65;;
32319;SDS011;19080;51.750;5.888;2022-08-07T06:46:03;7.28;;;5.90;;
32319;SDS011;19080;51.750;5.888;2022-08-07T06:48:37;7.72;;;6.00;;
32319;SDS011;19080;51.750;5.888;2022-08-07T06:51:08;8.23;;;6.13;;
32319;SDS011;19080;51.750;5.888;2022-08-07T06:53:37;7.57;;;5.82;;
32319;SDS011;19080;51.750;5.888;2022-08-07T06:56:25;6.07;;;5.45;;
32319;SDS011;19080;51.750;5.888;2022-08-07T06:59:30;5.60;;;4.80;;
32319;SDS011;19080;51.750;5.888;2022-08-07T07:02:18;5.43;;;4.47;;
32319;SDS011;19080;51.750;5.888;2022-08-07T07:05:05;9.13;;;5.15;;
32319;SDS011;19080;51.750;5.888;2022-08-07T07:07:32;6.18;;;5.10;;
32319;SDS011;19080;51.750;5.888;2022-08-07T07:10:29;6.72;;;4.68;;
32319;SDS011;19080;51.750;5.888;2022-08-07T07:13:07;6.03;;;4.70;;
32319;SDS011;19080;51.750;5.888;2022-08-07T07:15:38;5.63;;;4.95;;
32319;SDS011;19080;51.750;5.888;2022-08-07T07:18:21;8.55;;;5.70;;
32319;SDS011;19080;51.750;5.888;2022-08-07T07:21:19;6.57;;;5.60;;
32319;SDS011;19080;51.750;5.888;2022-08-07T07:23:52;7.32;;;4.40;;
32319;SDS011;19080;51.750;5.888;2022-08-07T07:26:37;5.30;;;4.13;;
32319;SDS011;19080;51.750;5.888;2022-08-07T07:29:07;5.60;;;4.43;;
32319;SDS011;19080;51.750;5.888;2022-08-07T07:31:58;5.95;;;5.10;;
32319;SDS011;19080;51.750;5.888;2022-08-07T07:34:28;5.63;;;4.18;;
32319;SDS011;19080;51.750;5.888;2022-08-07T07:36:58;5.50;;;4.22;;
32319;SDS011;19080;51.750;5.888;2022-08-07T07:39:45;7.72;;;4.13;;
32319;SDS011;19080;51.750;5.888;2022-08-07T07:42:24;4.72;;;4.10;;
32319;SDS011;19080;51.750;5.888;2022-08-07T07:44:59;3.90;;;3.50;;
32319;SDS011;19080;51.750;5.888;2022-08-07T07:47:28;7.32;;;4.00;;
32319;SDS011;19080;51.750;5.888;2022-08-07T07:50:09;6.80;;;3.70;;
32319;SDS011;19080;51.750;5.888;2022-08-07T07:52:56;7.35;;;3.85;;
32319;SDS011;19080;51.750;5.888;2022-08-07T07:55:26;4.90;;;3.35;;
32319;SDS011;19080;51.750;5.888;2022-08-07T07:58:03;4.47;;;3.65;;
32319;SDS011;19080;51.750;5.888;2022-08-07T08:00:30;3.92;;;3.25;;
32319;SDS011;19080;51.750;5.888;2022-08-07T08:03:06;4.00;;;3.60;;
32319;SDS011;19080;51.750;5.888;2022-08-07T08:05:42;5.18;;;2.90;;
32319;SDS011;19080;51.750;5.888;2022-08-07T08:08:21;6.50;;;3.20;;
32319;SDS011;19080;51.750;5.888;2022-08-07T08:11:05;6.43;;;3.25;;
32319;SDS011;19080;51.750;5.888;2022-08-07T08:13:34;5.20;;;3.20;;
32319;SDS011;19080;51.750;5.888;2022-08-07T08:16:19;4.55;;;3.25;;
32319;SDS011;19080;51.750;5.888;2022-08-07T08:18:50;4.68;;;2.80;;
32319;SDS011;19080;51.750;5.888;2022-08-07T08:21:19;3.63;;;2.60;;
32319;SDS011;19080;51.750;5.888;2022-08-07T08:24:28;3.22;;;2.35;;
32319;SDS011;19080;51.750;5.888;2022-08-07T08:27:24;5.75;;;1.88;;
32319;SDS011;19080;51.750;5.888;2022-08-07T08:30:03;3.67;;;2.50;;
32319;SDS011;19080;51.750;5.888;2022-08-07T08:32:31;3.90;;;2.60;;
32319;SDS011;19080;51.750;5.888;2022-08-07T08:35:05;5.82;;;2.83;;
32319;SDS011;19080;51.750;5.888;2022-08-07T08:37:34;4.15;;;2.40;;
32319;SDS011;19080;51.750;5.888;2022-08-07T08:40:25;4.97;;;2.28;;
32319;SDS011;19080;51.750;5.888;2022-08-07T08:45:33;8.73;;;2.38;;
32319;SDS011;19080;51.750;5.888;2022-08-07T08:57:06;4.45;;;1.92;;
32319;SDS011;19080;51.750;5.888;2022-08-07T08:59:39;4.70;;;1.85;;
32319;SDS011;19080;51.750;5.888;2022-08-07T09:02:33;5.65;;;1.75;;
32319;SDS011;19080;51.750;5.888;2022-08-07T09:05:21;5.13;;;2.13;;
32319;SDS011;19080;51.750;5.888;2022-08-07T09:08:10;6.93;;;2.25;;
32319;SDS011;19080;51.750;5.888;2022-08-07T09:13:28;2.25;;;1.95;;
32319;SDS011;19080;51.750;5.888;2022-08-07T09:19:09;2.47;;;1.65;;
32319;SDS011;19080;51.750;5.888;2022-08-07T09:22:09;2.38;;;1.77;;
32319;SDS011;19080;51.750;5.888;2022-08-07T09:24:58;5.15;;;2.00;;
32319;SDS011;19080;51.750;5.888;2022-08-07T09:27:48;2.67;;;2.17;;
32319;SDS011;19080;51.750;5.888;2022-08-07T09:30:27;3.17;;;2.30;;
32319;SDS011;19080;51.750;5.888;2022-08-07T09:33:01;3.85;;;2.35;;
32319;SDS011;19080;51.750;5.888;2022-08-07T09:35:43;4.10;;;2.30;;
32319;SDS011;19080;51.750;5.888;2022-08-07T09:38:53;2.72;;;2.00;;
32319;SDS011;19080;51.750;5.888;2022-08-07T09:43:52;5.05;;;2.42;;
32319;SDS011;19080;51.750;5.888;2022-08-07T09:46:35;3.10;;;2.65;;
32319;SDS011;19080;51.750;5.888;2022-08-07T09:49:40;4.78;;;2.47;;
32319;SDS011;19080;51.750;5.888;2022-08-07T09:52:32;15.15;;;3.30;;
32319;SDS011;19080;51.750;5.888;2022-08-07T10:00:13;4.85;;;2.25;;
32319;SDS011;19080;51.750;5.888;2022-08-07T10:14:03;3.30;;;2.10;;
32319;SDS011;19080;51.750;5.888;2022-08-07T10:16:40;3.22;;;2.47;;
32319;SDS011;19080;51.750;5.888;2022-08-07T10:21:39;3.58;;;2.17;;
32319;SDS011;19080;51.750;5.888;2022-08-07T10:24:38;2.63;;;2.08;;
32319;SDS011;19080;51.750;5.888;2022-08-07T10:27:16;2.53;;;2.00;;
32319;SDS011;19080;51.750;5.888;2022-08-07T10:29:54;3.05;;;2.45;;
32319;SDS011;19080;51.750;5.888;2022-08-07T10:37:58;4.70;;;2.50;;
32319;SDS011;19080;51.750;5.888;2022-08-07T10:40:53;2.83;;;2.33;;
32319;SDS011;19080;51.750;5.888;2022-08-07T10:43:34;2.85;;;2.20;;
32319;SDS011;19080;51.750;5.888;2022-08-07T10:46:11;5.15;;;2.42;;
32319;SDS011;19080;51.750;5.888;2022-08-07T10:48:45;4.35;;;2.45;;
32319;SDS011;19080;51.750;5.888;2022-08-07T10:51:19;3.15;;;2.30;;
32319;SDS011;19080;51.750;5.888;2022-08-07T10:56:58;3.85;;;2.30;;
32319;SDS011;19080;51.750;5.888;2022-08-07T11:02:26;1.92;;;1.67;;
32319;SDS011;19080;51.750;5.888;2022-08-07T11:07:42;4.32;;;1.50;;
32319;SDS011;19080;51.750;5.888;2022-08-07T11:16:30;5.95;;;2.50;;
32319;SDS011;19080;51.750;5.888;2022-08-07T11:19:06;2.50;;;1.90;;
32319;SDS011;19080;51.750;5.888;2022-08-07T11:27:06;8.32;;;2.50;;
32319;SDS011;19080;51.750;5.888;2022-08-07T11:29:40;4.60;;;2.10;;
32319;SDS011;19080;51.750;5.888;2022-08-07T11:32:16;4.63;;;1.90;;
32319;SDS011;19080;51.750;5.888;2022-08-07T11:34:55;2.22;;;1.77;;
32319;SDS011;19080;51.750;5.888;2022-08-07T11:40:39;3.55;;;1.80;;
32319;SDS011;19080;51.750;5.888;2022-08-07T11:43:22;2.25;;;1.50;;
32319;SDS011;19080;51.750;5.888;2022-08-07T11:59:46;2.90;;;1.70;;
32319;SDS011;19080;51.750;5.888;2022-08-07T12:05:25;3.67;;;1.58;;
32319;SDS011;19080;51.750;5.888;2022-08-07T12:08:17;2.42;;;1.63;;
32319;SDS011;19080;51.750;5.888;2022-08-07T12:11:14;2.75;;;1.60;;
32319;SDS011;19080;51.750;5.888;2022-08-07T12:16:34;2.17;;;1.50;;
32319;SDS011;19080;51.750;5.888;2022-08-07T12:21:36;2.75;;;1.40;;
32319;SDS011;19080;51.750;5.888;2022-08-07T12:27:34;5.28;;;1.40;;
32319;SDS011;19080;51.750;5.888;2022-08-07T12:30:22;2.83;;;1.50;;
32319;SDS011;19080;51.750;5.888;2022-08-07T12:33:11;2.88;;;1.33;;
32319;SDS011;19080;51.750;5.888;2022-08-07T12:35:56;2.03;;;1.70;;
32319;SDS011;19080;51.750;5.888;2022-08-07T12:38:27;2.08;;;1.73;;
32319;SDS011;19080;51.750;5.888;2022-08-07T12:41:08;3.77;;;1.90;;
32319;SDS011;19080;51.750;5.888;2022-08-07T12:43:36;2.13;;;1.48;;
32319;SDS011;19080;51.750;5.888;2022-08-07T12:46:34;1.65;;;1.50;;
32319;SDS011;19080;51.750;5.888;2022-08-07T12:52:10;2.15;;;1.92;;
32319;SDS011;19080;51.750;5.888;2022-08-07T12:57:36;2.93;;;1.70;;
32319;SDS011;19080;51.750;5.888;2022-08-07T13:00:26;3.97;;;1.90;;
32319;SDS011;19080;51.750;5.888;2022-08-07T13:12:06;2.30;;;1.77;;
32319;SDS011;19080;51.750;5.888;2022-08-07T13:14:52;3.55;;;1.73;;
32319;SDS011;19080;51.750;5.888;2022-08-07T13:17:23;2.70;;;1.50;;
32319;SDS011;19080;51.750;5.888;2022-08-07T13:22:57;4.97;;;1.70;;
32319;SDS011;19080;51.750;5.888;2022-08-07T13:25:50;2.08;;;1.70;;
32319;SDS011;19080;51.750;5.888;2022-08-07T13:28:27;2.33;;;1.73;;
32319;SDS011;19080;51.750;5.888;2022-08-07T13:30:57;1.92;;;1.70;;
32319;SDS011;19080;51.750;5.888;2022-08-07T13:33:42;2.55;;;1.88;;
32319;SDS011;19080;51.750;5.888;2022-08-07T13:36:47;2.42;;;1.60;;
32319;SDS011;19080;51.750;5.888;2022-08-07T13:42:03;2.05;;;1.45;;
32319;SDS011;19080;51.750;5.888;2022-08-07T13:44:31;1.48;;;1.38;;
32319;SDS011;19080;51.750;5.888;2022-08-07T13:47:02;3.35;;;1.55;;
32319;SDS011;19080;51.750;5.888;2022-08-07T13:49:35;2.67;;;1.50;;
32319;SDS011;19080;51.750;5.888;2022-08-07T13:52:24;2.45;;;1.90;;
32319;SDS011;19080;51.750;5.888;2022-08-07T13:55:05;2.85;;;1.45;;
32319;SDS011;19080;51.750;5.888;2022-08-07T13:57:37;2.85;;;1.70;;
32319;SDS011;19080;51.750;5.888;2022-08-07T14:00:29;2.42;;;1.70;;
32319;SDS011;19080;51.750;5.888;2022-08-07T14:02:58;4.30;;;1.35;;
32319;SDS011;19080;51.750;5.888;2022-08-07T14:05:25;1.92;;;1.40;;
32319;SDS011;19080;51.750;5.888;2022-08-07T14:08:03;1.67;;;1.58;;
32319;SDS011;19080;51.750;5.888;2022-08-07T14:10:34;1.85;;;1.52;;
32319;SDS011;19080;51.750;5.888;2022-08-07T14:13:09;4.07;;;1.48;;
32319;SDS011;19080;51.750;5.888;2022-08-07T14:15:42;2.22;;;1.55;;
32319;SDS011;19080;51.750;5.888;2022-08-07T14:18:17;2.20;;;1.50;;
32319;SDS011;19080;51.750;5.888;2022-08-07T14:21:06;3.33;;;1.45;;
32319;SDS011;19080;51.750;5.888;2022-08-07T14:23:55;1.92;;;1.75;;
32319;SDS011;19080;51.750;5.888;2022-08-07T14:26:29;1.98;;;1.33;;
32319;SDS011;19080;51.750;5.888;2022-08-07T14:28:58;2.08;;;1.60;;
32319;SDS011;19080;51.750;5.888;2022-08-07T14:31:46;1.50;;;1.40;;
32319;SDS011;19080;51.750;5.888;2022-08-07T14:34:23;1.50;;;1.40;;
32319;SDS011;19080;51.750;5.888;2022-08-07T14:36:55;3.05;;;1.90;;
32319;SDS011;19080;51.750;5.888;2022-08-07T14:39:22;1.45;;;1.10;;
32319;SDS011;19080;51.750;5.888;2022-08-07T14:42:11;2.28;;;1.70;;
32319;SDS011;19080;51.750;5.888;2022-08-07T14:44:47;1.65;;;1.55;;
32319;SDS011;19080;51.750;5.888;2022-08-07T14:47:17;2.10;;;1.70;;
32319;SDS011;19080;51.750;5.888;2022-08-07T14:49:44;1.50;;;1.40;;
32319;SDS011;19080;51.750;5.888;2022-08-07T14:52:24;1.75;;;1.55;;
32319;SDS011;19080;51.750;5.888;2022-08-07T14:54:54;1.85;;;1.40;;
32319;SDS011;19080;51.750;5.888;2022-08-07T14:57:23;1.92;;;1.60;;
32319;SDS011;19080;51.750;5.888;2022-08-07T15:00:10;2.47;;;1.70;;
32319;SDS011;19080;51.750;5.888;2022-08-07T15:02:46;3.10;;;1.90;;
32319;SDS011;19080;51.750;5.888;2022-08-07T15:05:22;3.25;;;2.10;;
32319;SDS011;19080;51.750;5.888;2022-08-07T15:07:49;2.03;;;1.63;;
32319;SDS011;19080;51.750;5.888;2022-08-07T15:10:18;2.25;;;1.95;;
32319;SDS011;19080;51.750;5.888;2022-08-07T15:12:53;1.70;;;1.58;;
32319;SDS011;19080;51.750;5.888;2022-08-07T15:15:25;2.00;;;1.80;;
32319;SDS011;19080;51.750;5.888;2022-08-07T15:17:58;3.92;;;1.48;;
32319;SDS011;19080;51.750;5.888;2022-08-07T15:20:29;4.20;;;2.08;;
32319;SDS011;19080;51.750;5.888;2022-08-07T15:23:27;3.08;;;1.80;;
32319;SDS011;19080;51.750;5.888;2022-08-07T15:26:14;3.17;;;1.80;;
32319;SDS011;19080;51.750;5.888;2022-08-07T15:28:46;2.70;;;1.67;;
32319;SDS011;19080;51.750;5.888;2022-08-07T15:31:34;1.65;;;1.52;;
32319;SDS011;19080;51.750;5.888;2022-08-07T15:34:21;1.83;;;1.60;;
32319;SDS011;19080;51.750;5.888;2022-08-07T15:36:51;5.15;;;4.75;;
32319;SDS011;19080;51.750;5.888;2022-08-07T15:39:35;4.32;;;3.92;;
32319;SDS011;19080;51.750;5.888;2022-08-07T15:47:49;2.85;;;1.58;;
32319;SDS011;19080;51.750;5.888;2022-08-07T15:50:28;1.98;;;1.60;;
32319;SDS011;19080;51.750;5.888;2022-08-07T15:53:16;1.95;;;1.70;;
32319;SDS011;19080;51.750;5.888;2022-08-07T15:55:50;3.42;;;1.80;;
32319;SDS011;19080;51.750;5.888;2022-08-07T15:58:35;1.65;;;1.55;;
32319;SDS011;19080;51.750;5.888;2022-08-07T16:01:04;2.75;;;1.60;;
32319;SDS011;19080;51.750;5.888;2022-08-07T16:03:33;1.75;;;1.52;;
32319;SDS011;19080;51.750;5.888;2022-08-07T16:06:13;2.00;;;1.83;;
32319;SDS011;19080;51.750;5.888;2022-08-07T16:08:41;2.10;;;1.58;;
32319;SDS011;19080;51.750;5.888;2022-08-07T16:11:28;1.92;;;1.30;;
32319;SDS011;19080;51.750;5.888;2022-08-07T16:16:33;3.75;;;1.38;;
32319;SDS011;19080;51.750;5.888;2022-08-07T16:19:33;1.60;;;1.08;;
32319;SDS011;19080;51.750;5.888;2022-08-07T16:22:41;2.92;;;1.73;;
32319;SDS011;19080;51.750;5.888;2022-08-07T16:34:21;2.60;;;1.35;;
32319;SDS011;19080;51.750;5.888;2022-08-07T16:39:46;4.05;;;2.67;;
32319;SDS011;19080;51.750;5.888;2022-08-07T16:42:33;3.90;;;2.00;;
32319;SDS011;19080;51.750;5.888;2022-08-07T16:53:41;2.97;;;2.47;;
32319;SDS011;19080;51.750;5.888;2022-08-07T16:56:32;5.07;;;3.15;;
32319;SDS011;19080;51.750;5.888;2022-08-07T16:59:29;3.97;;;2.72;;
32319;SDS011;19080;51.750;5.888;2022-08-07T17:05:24;4.28;;;1.88;;
32319;SDS011;19080;51.750;5.888;2022-08-07T17:08:31;2.65;;;1.65;;
32319;SDS011;19080;51.750;5.888;2022-08-07T17:11:23;2.13;;;1.77;;
32319;SDS011;19080;51.750;5.888;2022-08-07T17:14:22;5.90;;;1.63;;
32319;SDS011;19080;51.750;5.888;2022-08-07T17:16:55;3.50;;;2.00;;
32319;SDS011;19080;51.750;5.888;2022-08-07T17:22:21;6.30;;;1.70;;
32319;SDS011;19080;51.750;5.888;2022-08-07T17:25:05;5.03;;;1.67;;
32319;SDS011;19080;51.750;5.888;2022-08-07T17:30:16;3.63;;;1.70;;
32319;SDS011;19080;51.750;5.888;2022-08-07T17:35:19;5.47;;;4.20;;
32319;SDS011;19080;51.750;5.888;2022-08-07T17:38:12;3.30;;;2.25;;
32319;SDS011;19080;51.750;5.888;2022-08-07T17:43:58;1.70;;;1.50;;
32319;SDS011;19080;51.750;5.888;2022-08-07T17:46:39;4.35;;;1.88;;
32319;SDS011;19080;51.750;5.888;2022-08-07T17:51:38;3.08;;;1.35;;
32319;SDS011;19080;51.750;5.888;2022-08-07T17:54:46;3.20;;;1.63;;
32319;SDS011;19080;51.750;5.888;2022-08-07T17:57:28;2.83;;;2.10;;
32319;SDS011;19080;51.750;5.888;2022-08-07T18:00:17;1.95;;;1.67;;
32319;SDS011;19080;51.750;5.888;2022-08-07T18:02:59;1.73;;;1.60;;
32319;SDS011;19080;51.750;5.888;2022-08-07T18:05:44;1.90;;;1.58;;
32319;SDS011;19080;51.750;5.888;2022-08-07T18:08:34;2.67;;;1.80;;
32319;SDS011;19080;51.750;5.888;2022-08-07T18:11:41;4.97;;;2.22;;
32319;SDS011;19080;51.750;5.888;2022-08-07T18:14:38;2.80;;;1.45;;
32319;SDS011;19080;51.750;5.888;2022-08-07T18:20:32;3.00;;;1.40;;
32319;SDS011;19080;51.750;5.888;2022-08-07T18:23:30;1.90;;;1.52;;
32319;SDS011;19080;51.750;5.888;2022-08-07T18:26:13;2.92;;;1.70;;
32319;SDS011;19080;51.750;5.888;2022-08-07T18:28:47;2.22;;;1.63;;
32319;SDS011;19080;51.750;5.888;2022-08-07T18:34:05;1.70;;;1.30;;
32319;SDS011;19080;51.750;5.888;2022-08-07T18:37:05;2.20;;;1.77;;
32319;SDS011;19080;51.750;5.888;2022-08-07T18:42:38;1.77;;;1.58;;
32319;SDS011;19080;51.750;5.888;2022-08-07T18:45:09;3.03;;;1.58;;
32319;SDS011;19080;51.750;5.888;2022-08-07T18:48:12;2.35;;;1.45;;
32319;SDS011;19080;51.750;5.888;2022-08-07T18:54:10;3.47;;;1.15;;
32319;SDS011;19080;51.750;5.888;2022-08-07T18:57:05;2.35;;;1.50;;
32319;SDS011;19080;51.750;5.888;2022-08-07T19:00:06;3.15;;;1.52;;